sensor_id;sensor_type;location;lat;lon;timestamp;pressure;altitude;pressure_sealevel;temperature;humidity
30081;BME280;16902;50.816;12.828;2023-07-31T00:01:33;97571.59;;;10.88;100.00
30081;BME280;16902;50.816;12.828;2023-07-31T00:06:35;97562.72;;;10.82;100.00
30081;BME280;16902;50.816;12.828;2023-07-31T00:11:37;97570.22;;;10.70;100.00
30081;BME280;16902;50.816;12.828;2023-07-31T00:16:39;97562.53;;;10.62;100.00
30081;BME280;16902;50.816;12.828;2023-07-31T00:21:41;97557.16;;;10.64;100.00
30081;BME280;16902;50.816;12.828;2023-07-31T00:26:43;97552.38;;;10.67;100.00
30081;BME280;16902;50.816;12.828;2023-07-31T00:31:45;97544.75;;;10.66;100.00
30081;BME280;16902;50.816;12.828;2023-07-31T00:36:47;97535.50;;;10.63;100.00
30081;BME280;16902;50.816;12.828;2023-07-31T00:41:50;97527.31;;;10.66;100.00
30081;BME280;16902;50.816;12.828;2023-07-31T00:46:52;97523.75;;;10.89;100.00
30081;BME280;16902;50.816;12.828;2023-07-31T00:51:55;97521.28;;;11.09;100.00
30081;BME280;16902;50.816;12.828;2023-07-31T00:56:59;97527.16;;;11.45;100.00
30081;BME280;16902;50.816;12.828;2023-07-31T01:02:03;97522.09;;;12.00;100.00
30081;BME280;16902;50.816;12.828;2023-07-31T01:07:14;97522.22;;;12.46;100.00
30081;BME280;16902;50.816;12.828;2023-07-31T01:12:21;97525.13;;;13.11;100.00
30081;BME280;16902;50.816;12.828;2023-07-31T01:17:25;97524.91;;;13.52;100.00
30081;BME280;16902;50.816;12.828;2023-07-31T01:28:02;97518.78;;;13.98;100.00
30081;BME280;16902;50.816;12.828;2023-07-31T01:33:05;97517.03;;;14.24;100.00
30081;BME280;16902;50.816;12.828;2023-07-31T01:38:09;97509.94;;;14.37;100.00
30081;BME280;16902;50.816;12.828;2023-07-31T01:43:11;97516.34;;;14.48;100.00
30081;BME280;16902;50.816;12.828;2023-07-31T01:48:12;97524.31;;;14.60;100.00
30081;BME280;16902;50.816;12.828;2023-07-31T01:53:15;97517.88;;;14.62;100.00
30081;BME280;16902;50.816;12.828;2023-07-31T01:58:17;97515.72;;;14.53;100.00
30081;BME280;16902;50.816;12.828;2023-07-31T02:03:18;97515.81;;;14.26;100.00
30081;BME280;16902;50.816;12.828;2023-07-31T02:08:20;97520.50;;;14.11;100.00
30081;BME280;16902;50.816;12.828;2023-07-31T02:13:22;97516.03;;;13.73;100.00
30081;BME280;16902;50.816;12.828;2023-07-31T02:18:24;97507.16;;;13.68;100.00
30081;BME280;16902;50.816;12.828;2023-07-31T02:23:25;97509.47;;;13.44;100.00
30081;BME280;16902;50.816;12.828;2023-07-31T02:28:28;97506.63;;;13.32;100.00
30081;BME280;16902;50.816;12.828;2023-07-31T02:33:30;97499.41;;;13.28;100.00
30081;BME280;16902;50.816;12.828;2023-07-31T02:38:32;97494.97;;;13.15;100.00
30081;BME280;16902;50.816;12.828;2023-07-31T02:43:34;97488.16;;;13.01;100.00
30081;BME280;16902;50.816;12.828;2023-07-31T02:48:36;97484.50;;;12.95;100.00
30081;BME280;16902;50.816;12.828;2023-07-31T02:53:37;97480.91;;;12.90;100.00
30081;BME280;16902;50.816;12.828;2023-07-31T02:58:39;97477.88;;;12.93;100.00
30081;BME280;16902;50.816;12.828;2023-07-31T03:03:41;97475.88;;;12.88;100.00
30081;BME280;16902;50.816;12.828;2023-07-31T03:08:46;97467.44;;;12.93;100.00
30081;BME280;16902;50.816;12.828;2023-07-31T03:13:49;97474.66;;;12.91;100.00
30081;BME280;16902;50.816;12.828;2023-07-31T03:18:50;97474.69;;;12.97;100.00
30081;BME280;16902;50.816;12.828;2023-07-31T03:23:52;97465.81;;;12.98;100.00
30081;BME280;16902;50.816;12.828;2023-07-31T03:28:54;97470.25;;;12.91;100.00
30081;BME280;16902;50.816;12.828;2023-07-31T03:33:55;97471.66;;;12.94;100.00
30081;BME280;16902;50.816;12.828;2023-07-31T03:38:57;97463.63;;;12.89;100.00
30081;BME280;16902;50.816;12.828;2023-07-31T03:43:59;97459.19;;;12.89;100.00
30081;BME280;16902;50.816;12.828;2023-07-31T03:49:00;97461.81;;;12.89;100.00
30081;BME280;16902;50.816;12.828;2023-07-31T03:54:02;97452.94;;;12.90;100.00
30081;BME280;16902;50.816;12.828;2023-07-31T03:59:04;97463.00;;;12.93;100.00
30081;BME280;16902;50.816;12.828;2023-07-31T04:04:06;97456.56;;;12.89;100.00
30081;BME280;16902;50.816;12.828;2023-07-31T04:09:07;97455.59;;;12.97;100.00
30081;BME280;16902;50.816;12.828;2023-07-31T04:14:09;97453.34;;;13.07;100.00
30081;BME280;16902;50.816;12.828;2023-07-31T04:19:11;97447.31;;;13.13;100.00
30081;BME280;16902;50.816;12.828;2023-07-31T04:24:12;97446.91;;;13.16;100.00
30081;BME280;16902;50.816;12.828;2023-07-31T04:29:14;97439.66;;;13.18;100.00
30081;BME280;16902;50.816;12.828;2023-07-31T04:34:17;97442.50;;;13.23;100.00
30081;BME280;16902;50.816;12.828;2023-07-31T04:39:19;97428.81;;;13.28;100.00
30081;BME280;16902;50.816;12.828;2023-07-31T04:44:20;97420.16;;;13.34;100.00
30081;BME280;16902;50.816;12.828;2023-07-31T04:49:22;97410.47;;;13.41;100.00
30081;BME280;16902;50.816;12.828;2023-07-31T04:54:24;97414.47;;;13.50;100.00
30081;BME280;16902;50.816;12.828;2023-07-31T04:59:28;97407.22;;;13.59;100.00
30081;BME280;16902;50.816;12.828;2023-07-31T05:04:29;97402.09;;;13.77;100.00
30081;BME280;16902;50.816;12.828;2023-07-31T05:09:31;97403.00;;;13.96;100.00
30081;BME280;16902;50.816;12.828;2023-07-31T05:14:33;97409.75;;;14.10;100.00
30081;BME280;16902;50.816;12.828;2023-07-31T05:19:34;97391.25;;;14.12;100.00
30081;BME280;16902;50.816;12.828;2023-07-31T05:24:36;97410.53;;;14.18;100.00
30081;BME280;16902;50.816;12.828;2023-07-31T05:29:38;97408.13;;;14.16;100.00
30081;BME280;16902;50.816;12.828;2023-07-31T05:34:39;97406.13;;;14.11;100.00
30081;BME280;16902;50.816;12.828;2023-07-31T05:39:41;97414.38;;;14.15;100.00
30081;BME280;16902;50.816;12.828;2023-07-31T05:44:43;97413.56;;;14.14;100.00
30081;BME280;16902;50.816;12.828;2023-07-31T05:49:45;97404.69;;;14.22;100.00
30081;BME280;16902;50.816;12.828;2023-07-31T05:54:46;97414.06;;;14.36;100.00
30081;BME280;16902;50.816;12.828;2023-07-31T05:59:48;97414.19;;;14.48;100.00
30081;BME280;16902;50.816;12.828;2023-07-31T06:04:50;97405.94;;;14.70;100.00
30081;BME280;16902;50.816;12.828;2023-07-31T06:09:52;97412.00;;;14.95;100.00
30081;BME280;16902;50.816;12.828;2023-07-31T06:14:56;97414.13;;;15.05;100.00
30081;BME280;16902;50.816;12.828;2023-07-31T06:19:57;97397.00;;;15.21;100.00
30081;BME280;16902;50.816;12.828;2023-07-31T06:24:59;97401.75;;;15.30;100.00
30081;BME280;16902;50.816;12.828;2023-07-31T06:30:01;97409.53;;;15.37;100.00
30081;BME280;16902;50.816;12.828;2023-07-31T06:35:03;97408.22;;;15.46;100.00
30081;BME280;16902;50.816;12.828;2023-07-31T06:40:06;97409.84;;;15.65;100.00
30081;BME280;16902;50.816;12.828;2023-07-31T06:45:10;97410.34;;;15.74;100.00
30081;BME280;16902;50.816;12.828;2023-07-31T06:50:12;97404.03;;;15.82;100.00
30081;BME280;16902;50.816;12.828;2023-07-31T06:55:18;97399.09;;;15.85;100.00
30081;BME280;16902;50.816;12.828;2023-07-31T07:00:22;97416.41;;;16.05;100.00
30081;BME280;16902;50.816;12.828;2023-07-31T07:05:24;97408.28;;;16.25;100.00
30081;BME280;16902;50.816;12.828;2023-07-31T07:10:26;97410.00;;;16.31;100.00
30081;BME280;16902;50.816;12.828;2023-07-31T07:15:28;97405.31;;;16.21;100.00
30081;BME280;16902;50.816;12.828;2023-07-31T07:20:30;97405.75;;;16.18;100.00
30081;BME280;16902;50.816;12.828;2023-07-31T07:25:32;97416.00;;;16.19;100.00
30081;BME280;16902;50.816;12.828;2023-07-31T07:30:34;97412.63;;;16.31;100.00
30081;BME280;16902;50.816;12.828;2023-07-31T07:35:36;97416.44;;;16.58;100.00
30081;BME280;16902;50.816;12.828;2023-07-31T07:40:40;97415.44;;;16.71;100.00
30081;BME280;16902;50.816;12.828;2023-07-31T07:45:42;97420.53;;;16.84;100.00
30081;BME280;16902;50.816;12.828;2023-07-31T07:50:44;97412.97;;;17.23;100.00
30081;BME280;16902;50.816;12.828;2023-07-31T07:55:46;97423.06;;;17.03;100.00
30081;BME280;16902;50.816;12.828;2023-07-31T08:00:51;97417.91;;;16.84;100.00
30081;BME280;16902;50.816;12.828;2023-07-31T08:05:58;97423.47;;;16.76;100.00
30081;BME280;16902;50.816;12.828;2023-07-31T08:11:00;97422.66;;;16.64;100.00
30081;BME280;16902;50.816;12.828;2023-07-31T08:16:03;97429.50;;;16.65;100.00
30081;BME280;16902;50.816;12.828;2023-07-31T08:21:05;97427.00;;;16.70;100.00
30081;BME280;16902;50.816;12.828;2023-07-31T08:26:07;97427.38;;;16.74;100.00
30081;BME280;16902;50.816;12.828;2023-07-31T08:31:09;97431.13;;;16.78;100.00
30081;BME280;16902;50.816;12.828;2023-07-31T08:36:12;97436.75;;;16.81;100.00
30081;BME280;16902;50.816;12.828;2023-07-31T08:41:14;97433.66;;;16.84;100.00
30081;BME280;16902;50.816;12.828;2023-07-31T08:46:18;97423.16;;;16.96;100.00
30081;BME280;16902;50.816;12.828;2023-07-31T08:51:21;97430.81;;;17.09;100.00
30081;BME280;16902;50.816;12.828;2023-07-31T08:56:24;97427.84;;;17.17;100.00
30081;BME280;16902;50.816;12.828;2023-07-31T09:01:29;97427.72;;;17.36;100.00
30081;BME280;16902;50.816;12.828;2023-07-31T09:06:32;97424.25;;;17.47;100.00
30081;BME280;16902;50.816;12.828;2023-07-31T09:11:34;97419.69;;;17.42;100.00
30081;BME280;16902;50.816;12.828;2023-07-31T09:16:51;97417.03;;;17.54;100.00
30081;BME280;16902;50.816;12.828;2023-07-31T09:21:54;97424.13;;;17.65;100.00
30081;BME280;16902;50.816;12.828;2023-07-31T09:26:57;97413.34;;;17.67;100.00
30081;BME280;16902;50.816;12.828;2023-07-31T09:32:00;97414.00;;;17.86;100.00
30081;BME280;16902;50.816;12.828;2023-07-31T09:37:01;97413.13;;;18.09;100.00
30081;BME280;16902;50.816;12.828;2023-07-31T09:42:04;97407.06;;;18.25;100.00
30081;BME280;16902;50.816;12.828;2023-07-31T09:47:06;97404.72;;;18.57;100.00
30081;BME280;16902;50.816;12.828;2023-07-31T09:52:11;97395.78;;;19.31;100.00
30081;BME280;16902;50.816;12.828;2023-07-31T09:57:15;97399.72;;;19.50;100.00
30081;BME280;16902;50.816;12.828;2023-07-31T10:02:22;97389.47;;;19.75;100.00
30081;BME280;16902;50.816;12.828;2023-07-31T10:07:25;97389.44;;;19.70;100.00
30081;BME280;16902;50.816;12.828;2023-07-31T10:12:31;97379.28;;;19.62;100.00
30081;BME280;16902;50.816;12.828;2023-07-31T10:17:35;97380.81;;;19.36;100.00
30081;BME280;16902;50.816;12.828;2023-07-31T10:22:38;97371.34;;;19.84;100.00
30081;BME280;16902;50.816;12.828;2023-07-31T10:27:40;97371.91;;;19.42;100.00
30081;BME280;16902;50.816;12.828;2023-07-31T10:32:43;97372.78;;;18.87;100.00
30081;BME280;16902;50.816;12.828;2023-07-31T10:37:45;97372.44;;;18.67;100.00
30081;BME280;16902;50.816;12.828;2023-07-31T10:42:57;97358.75;;;19.04;100.00
30081;BME280;16902;50.816;12.828;2023-07-31T10:48:02;97353.38;;;20.08;100.00
30081;BME280;16902;50.816;12.828;2023-07-31T10:53:04;97353.72;;;20.86;100.00
30081;BME280;16902;50.816;12.828;2023-07-31T11:03:16;97339.38;;;21.24;100.00
30081;BME280;16902;50.816;12.828;2023-07-31T11:08:24;97343.41;;;20.85;100.00
30081;BME280;16902;50.816;12.828;2023-07-31T11:13:27;97333.53;;;20.11;100.00
30081;BME280;16902;50.816;12.828;2023-07-31T11:18:29;97333.34;;;20.17;100.00
30081;BME280;16902;50.816;12.828;2023-07-31T11:23:30;97335.91;;;20.07;100.00
30081;BME280;16902;50.816;12.828;2023-07-31T11:28:34;97335.56;;;19.98;100.00
30081;BME280;16902;50.816;12.828;2023-07-31T11:33:36;97324.19;;;20.62;100.00
30081;BME280;16902;50.816;12.828;2023-07-31T11:38:38;97318.88;;;20.57;100.00
30081;BME280;16902;50.816;12.828;2023-07-31T11:43:40;97313.19;;;20.43;100.00
30081;BME280;16902;50.816;12.828;2023-07-31T11:48:41;97305.38;;;20.21;100.00
30081;BME280;16902;50.816;12.828;2023-07-31T11:53:51;97299.38;;;19.99;100.00
30081;BME280;16902;50.816;12.828;2023-07-31T11:58:56;97298.28;;;20.27;100.00
30081;BME280;16902;50.816;12.828;2023-07-31T12:03:59;97298.97;;;20.92;100.00
30081;BME280;16902;50.816;12.828;2023-07-31T12:09:04;97289.72;;;21.62;100.00
30081;BME280;16902;50.816;12.828;2023-07-31T12:14:06;97267.53;;;22.40;100.00
30081;BME280;16902;50.816;12.828;2023-07-31T12:19:09;97269.38;;;22.49;100.00
30081;BME280;16902;50.816;12.828;2023-07-31T12:24:11;97274.34;;;22.71;100.00
30081;BME280;16902;50.816;12.828;2023-07-31T12:29:13;97271.69;;;22.71;100.00
30081;BME280;16902;50.816;12.828;2023-07-31T12:34:20;97273.06;;;21.87;100.00
30081;BME280;16902;50.816;12.828;2023-07-31T12:39:24;97256.09;;;22.03;100.00
30081;BME280;16902;50.816;12.828;2023-07-31T12:44:26;97252.16;;;22.21;100.00
30081;BME280;16902;50.816;12.828;2023-07-31T12:49:31;97242.84;;;21.98;100.00
30081;BME280;16902;50.816;12.828;2023-07-31T12:54:33;97237.06;;;22.12;100.00
30081;BME280;16902;50.816;12.828;2023-07-31T12:59:37;97228.53;;;22.04;100.00
30081;BME280;16902;50.816;12.828;2023-07-31T13:04:39;97235.16;;;22.32;100.00
30081;BME280;16902;50.816;12.828;2023-07-31T13:09:40;97228.41;;;22.81;100.00
30081;BME280;16902;50.816;12.828;2023-07-31T13:14:42;97229.88;;;23.62;100.00
30081;BME280;16902;50.816;12.828;2023-07-31T13:19:44;97237.22;;;24.68;100.00
30081;BME280;16902;50.816;12.828;2023-07-31T13:24:46;97231.09;;;24.43;100.00
30081;BME280;16902;50.816;12.828;2023-07-31T13:29:49;97219.53;;;25.95;100.00
30081;BME280;16902;50.816;12.828;2023-07-31T13:34:51;97204.41;;;27.20;78.03
30081;BME280;16902;50.816;12.828;2023-07-31T13:39:53;97190.13;;;28.14;72.55
30081;BME280;16902;50.816;12.828;2023-07-31T13:44:56;97188.59;;;27.68;67.26
30081;BME280;16902;50.816;12.828;2023-07-31T13:49:58;97189.59;;;25.66;100.00
30081;BME280;16902;50.816;12.828;2023-07-31T13:54:59;97183.63;;;22.64;100.00
30081;BME280;16902;50.816;12.828;2023-07-31T14:00:01;97182.44;;;21.60;100.00
30081;BME280;16902;50.816;12.828;2023-07-31T14:05:05;97179.69;;;21.03;100.00
30081;BME280;16902;50.816;12.828;2023-07-31T14:10:07;97173.63;;;25.47;100.00
30081;BME280;16902;50.816;12.828;2023-07-31T14:15:10;97183.25;;;29.10;56.85
30081;BME280;16902;50.816;12.828;2023-07-31T14:20:12;97189.34;;;28.05;63.09
30081;BME280;16902;50.816;12.828;2023-07-31T14:25:15;97171.31;;;25.92;87.62
30081;BME280;16902;50.816;12.828;2023-07-31T14:30:17;97169.31;;;24.17;100.00
30081;BME280;16902;50.816;12.828;2023-07-31T14:35:20;97161.00;;;25.33;100.00
30081;BME280;16902;50.816;12.828;2023-07-31T14:40:22;97171.09;;;27.62;69.97
30081;BME280;16902;50.816;12.828;2023-07-31T14:45:24;97167.44;;;25.13;96.74
30081;BME280;16902;50.816;12.828;2023-07-31T14:50:26;97172.38;;;22.88;100.00
30081;BME280;16902;50.816;12.828;2023-07-31T14:55:28;97166.78;;;21.73;100.00
30081;BME280;16902;50.816;12.828;2023-07-31T15:00:30;97173.41;;;21.55;100.00
30081;BME280;16902;50.816;12.828;2023-07-31T15:05:31;97168.38;;;21.59;100.00
30081;BME280;16902;50.816;12.828;2023-07-31T15:10:33;97172.06;;;21.27;100.00
30081;BME280;16902;50.816;12.828;2023-07-31T15:15:35;97171.63;;;20.73;100.00
30081;BME280;16902;50.816;12.828;2023-07-31T15:20:37;97164.38;;;20.48;100.00
30081;BME280;16902;50.816;12.828;2023-07-31T15:25:39;97157.78;;;20.50;100.00
30081;BME280;16902;50.816;12.828;2023-07-31T15:30:41;97142.91;;;20.44;100.00
30081;BME280;16902;50.816;12.828;2023-07-31T15:35:43;97137.38;;;20.41;100.00
30081;BME280;16902;50.816;12.828;2023-07-31T15:40:45;97129.16;;;20.42;100.00
30081;BME280;16902;50.816;12.828;2023-07-31T15:45:47;97114.38;;;20.46;100.00
30081;BME280;16902;50.816;12.828;2023-07-31T15:50:49;97116.81;;;20.58;100.00
30081;BME280;16902;50.816;12.828;2023-07-31T15:55:50;97113.22;;;20.22;100.00
30081;BME280;16902;50.816;12.828;2023-07-31T16:00:53;97118.94;;;20.03;100.00
30081;BME280;16902;50.816;12.828;2023-07-31T16:05:55;97109.13;;;19.99;100.00
30081;BME280;16902;50.816;12.828;2023-07-31T16:10:56;97113.88;;;19.97;100.00
30081;BME280;16902;50.816;12.828;2023-07-31T16:15:58;97107.53;;;19.98;100.00
30081;BME280;16902;50.816;12.828;2023-07-31T16:21:00;97096.19;;;19.97;100.00
30081;BME280;16902;50.816;12.828;2023-07-31T16:26:02;97091.94;;;20.01;100.00
30081;BME280;16902;50.816;12.828;2023-07-31T16:31:05;97098.06;;;20.02;100.00
30081;BME280;16902;50.816;12.828;2023-07-31T16:36:07;97096.44;;;20.01;100.00
30081;BME280;16902;50.816;12.828;2023-07-31T16:41:09;97075.09;;;20.13;100.00
30081;BME280;16902;50.816;12.828;2023-07-31T16:46:11;97080.16;;;20.19;100.00
30081;BME280;16902;50.816;12.828;2023-07-31T16:51:13;97074.25;;;19.97;100.00
30081;BME280;16902;50.816;12.828;2023-07-31T16:56:15;97081.81;;;19.83;100.00
30081;BME280;16902;50.816;12.828;2023-07-31T17:01:17;97082.94;;;19.92;100.00
30081;BME280;16902;50.816;12.828;2023-07-31T17:06:19;97077.47;;;20.09;100.00
30081;BME280;16902;50.816;12.828;2023-07-31T17:11:21;97068.47;;;20.10;100.00
30081;BME280;16902;50.816;12.828;2023-07-31T17:16:23;97070.56;;;20.03;100.00
30081;BME280;16902;50.816;12.828;2023-07-31T17:21:26;97057.31;;;19.93;100.00
30081;BME280;16902;50.816;12.828;2023-07-31T17:26:28;97052.25;;;19.86;100.00
30081;BME280;16902;50.816;12.828;2023-07-31T17:31:30;97058.28;;;19.82;100.00
30081;BME280;16902;50.816;12.828;2023-07-31T17:36:32;97055.16;;;19.85;100.00
30081;BME280;16902;50.816;12.828;2023-07-31T17:41:34;97059.34;;;19.81;100.00
30081;BME280;16902;50.816;12.828;2023-07-31T17:46:36;97059.94;;;19.88;100.00
30081;BME280;16902;50.816;12.828;2023-07-31T17:51:39;97059.91;;;19.83;100.00
30081;BME280;16902;50.816;12.828;2023-07-31T17:56:42;97064.63;;;19.81;100.00
30081;BME280;16902;50.816;12.828;2023-07-31T18:01:43;97065.94;;;19.78;100.00
30081;BME280;16902;50.816;12.828;2023-07-31T18:06:45;97062.75;;;19.76;100.00
30081;BME280;16902;50.816;12.828;2023-07-31T18:11:47;97051.69;;;19.79;100.00
30081;BME280;16902;50.816;12.828;2023-07-31T18:16:49;97055.88;;;19.75;100.00
30081;BME280;16902;50.816;12.828;2023-07-31T18:21:51;97050.31;;;19.71;100.00
30081;BME280;16902;50.816;12.828;2023-07-31T18:26:53;97052.94;;;19.71;100.00
30081;BME280;16902;50.816;12.828;2023-07-31T18:31:55;97050.81;;;19.63;100.00
30081;BME280;16902;50.816;12.828;2023-07-31T18:36:57;97042.72;;;19.48;100.00
30081;BME280;16902;50.816;12.828;2023-07-31T18:41:59;97032.88;;;19.33;100.00
30081;BME280;16902;50.816;12.828;2023-07-31T18:47:01;97023.78;;;19.19;100.00
30081;BME280;16902;50.816;12.828;2023-07-31T18:52:04;97029.78;;;19.09;100.00
30081;BME280;16902;50.816;12.828;2023-07-31T18:57:06;97016.28;;;19.00;100.00
30081;BME280;16902;50.816;12.828;2023-07-31T19:02:08;97027.66;;;19.06;100.00
30081;BME280;16902;50.816;12.828;2023-07-31T19:07:10;97034.22;;;19.04;100.00
30081;BME280;16902;50.816;12.828;2023-07-31T19:12:12;97009.44;;;19.05;100.00
30081;BME280;16902;50.816;12.828;2023-07-31T19:17:14;97001.28;;;19.06;100.00
30081;BME280;16902;50.816;12.828;2023-07-31T19:22:16;97000.22;;;19.07;100.00
30081;BME280;16902;50.816;12.828;2023-07-31T19:27:18;96995.22;;;19.06;100.00
30081;BME280;16902;50.816;12.828;2023-07-31T19:32:20;96998.88;;;19.05;100.00
30081;BME280;16902;50.816;12.828;2023-07-31T19:37:22;96991.19;;;18.98;100.00
30081;BME280;16902;50.816;12.828;2023-07-31T19:42:23;96970.56;;;18.95;100.00
30081;BME280;16902;50.816;12.828;2023-07-31T19:47:25;96973.22;;;18.95;100.00
30081;BME280;16902;50.816;12.828;2023-07-31T19:52:27;96973.94;;;18.85;100.00
30081;BME280;16902;50.816;12.828;2023-07-31T19:57:29;96965.72;;;18.77;100.00
30081;BME280;16902;50.816;12.828;2023-07-31T20:02:31;96964.06;;;18.70;100.00
30081;BME280;16902;50.816;12.828;2023-07-31T20:07:33;96962.41;;;18.64;100.00
30081;BME280;16902;50.816;12.828;2023-07-31T20:12:35;96949.59;;;18.73;100.00
30081;BME280;16902;50.816;12.828;2023-07-31T20:17:38;96956.19;;;18.75;100.00
30081;BME280;16902;50.816;12.828;2023-07-31T20:22:40;96944.09;;;18.80;100.00
30081;BME280;16902;50.816;12.828;2023-07-31T20:27:42;96947.50;;;18.80;100.00
30081;BME280;16902;50.816;12.828;2023-07-31T20:32:44;96942.00;;;18.82;100.00
30081;BME280;16902;50.816;12.828;2023-07-31T20:37:46;96940.97;;;18.83;100.00
30081;BME280;16902;50.816;12.828;2023-07-31T20:42:55;96940.41;;;18.81;100.00
30081;BME280;16902;50.816;12.828;2023-07-31T20:47:58;96925.63;;;18.80;100.00
30081;BME280;16902;50.816;12.828;2023-07-31T20:53:01;96915.88;;;18.80;100.00
30081;BME280;16902;50.816;12.828;2023-07-31T20:58:03;96916.28;;;18.67;100.00
30081;BME280;16902;50.816;12.828;2023-07-31T21:03:05;96909.59;;;18.54;100.00
30081;BME280;16902;50.816;12.828;2023-07-31T21:08:08;96905.94;;;18.60;100.00
30081;BME280;16902;50.816;12.828;2023-07-31T21:13:10;96899.38;;;18.63;100.00
30081;BME280;16902;50.816;12.828;2023-07-31T21:18:12;96889.88;;;18.62;100.00
30081;BME280;16902;50.816;12.828;2023-07-31T21:23:14;96882.72;;;18.57;100.00
30081;BME280;16902;50.816;12.828;2023-07-31T21:28:16;96884.19;;;18.43;100.00
30081;BME280;16902;50.816;12.828;2023-07-31T21:33:18;96878.31;;;18.36;100.00
30081;BME280;16902;50.816;12.828;2023-07-31T21:38:20;96869.00;;;18.23;100.00
30081;BME280;16902;50.816;12.828;2023-07-31T21:43:22;96869.81;;;17.96;100.00
30081;BME280;16902;50.816;12.828;2023-07-31T21:48:23;96859.66;;;17.61;100.00
30081;BME280;16902;50.816;12.828;2023-07-31T21:53:25;96859.97;;;17.43;100.00
30081;BME280;16902;50.816;12.828;2023-07-31T21:58:27;96856.06;;;17.24;100.00
30081;BME280;16902;50.816;12.828;2023-07-31T22:03:29;96855.94;;;16.75;100.00
30081;BME280;16902;50.816;12.828;2023-07-31T22:08:31;96849.44;;;16.49;100.00
30081;BME280;16902;50.816;12.828;2023-07-31T22:13:33;96834.50;;;16.15;100.00
30081;BME280;16902;50.816;12.828;2023-07-31T22:18:35;96828.44;;;16.15;100.00
30081;BME280;16902;50.816;12.828;2023-07-31T22:23:37;96822.28;;;16.09;100.00
30081;BME280;16902;50.816;12.828;2023-07-31T22:28:39;96815.38;;;16.03;100.00
30081;BME280;16902;50.816;12.828;2023-07-31T22:33:41;96819.56;;;15.87;100.00
30081;BME280;16902;50.816;12.828;2023-07-31T22:38:43;96811.84;;;15.81;100.00
30081;BME280;16902;50.816;12.828;2023-07-31T22:43:45;96792.41;;;15.65;100.00
30081;BME280;16902;50.816;12.828;2023-07-31T22:48:47;96777.50;;;15.54;100.00
30081;BME280;16902;50.816;12.828;2023-07-31T22:53:49;96758.88;;;15.55;100.00
30081;BME280;16902;50.816;12.828;2023-07-31T22:58:50;96751.88;;;15.44;100.00
30081;BME280;16902;50.816;12.828;2023-07-31T23:03:53;96745.41;;;15.35;100.00
30081;BME280;16902;50.816;12.828;2023-07-31T23:08:54;96737.28;;;15.36;100.00
30081;BME280;16902;50.816;12.828;2023-07-31T23:13:56;96730.22;;;15.37;100.00
30081;BME280;16902;50.816;12.828;2023-07-31T23:18:58;96724.44;;;15.35;100.00
30081;BME280;16902;50.816;12.828;2023-07-31T23:24:00;96711.03;;;15.48;100.00
30081;BME280;16902;50.816;12.828;2023-07-31T23:29:02;96710.63;;;15.56;100.00
30081;BME280;16902;50.816;12.828;2023-07-31T23:34:04;96692.75;;;15.53;100.00
30081;BME280;16902;50.816;12.828;2023-07-31T23:39:06;96681.75;;;15.56;100.00
30081;BME280;16902;50.816;12.828;2023-07-31T23:44:08;96672.22;;;15.50;100.00
30081;BME280;16902;50.816;12.828;2023-07-31T23:49:09;96671.28;;;15.39;100.00
30081;BME280;16902;50.816;12.828;2023-07-31T23:54:12;96666.81;;;15.40;100.00
30081;BME280;16902;50.816;12.828;2023-07-31T23:59:13;96648.00;;;15.43;100.00
